Bob Hope Airport
KBUR : now visible

Airfield :











YOU CAN JOIN US ON...

 
LOGIN :

Register | Disclaimer

   EN    FR    IT 

 









Legend :    VFR   Marginal VFR   IFR   Intensive IFR   Very Intensive IFR
Visi :
Ceiling :
>= 8 km
>= 3000ft
5 to 8 km
1000 to 3000 ft
1500m to 5 km
500 to 1000 ft
800 to 1500m
200 to 500 ft
< 800m
< 200 ft
Symbols :   Thunderstorms  Fog  Heavy snow  Heavy precipitations  Wind > 20 kt






- Airport Elevation : 778 ft
- IATA code : BUR


KBUR - Bob Hope

CURRENT METAR :
  • 291653Z 19007KT 8SM OVC013 18/13 A2999 RMK AO2 SLP145 T01830133 $

EXPIRED METARs :
  • 291553Z 14006KT 8SM OVC012 18/13 A2999 RMK AO2 SLP145 T01780133 $
  • 291453Z 16003KT 7SM OVC010 17/13 A2997 RMK AO2 SLP137 T01720133 53009 $

TAF KBUR
Valid from the 29 at 12:00 until the 30 at 12:00 UTC


291154Z 2912/3012 16005KT 6SM BR OVC007
FM291700 15005KT 5SM BR BKN012
FM291900 18009KT P6SM SCT017 SCT035
FM300400 15005KT P6SM BKN012
FM300800 16006KT 6SM BR BKN009 OVC017
KZLA FIR / North America



MET'MAP, your aeronautical weather chart ! - Copyright ORBIFLY December 2007 - Disclaimer

ORBIFLY MET'MAP TEAM :

Programming & Development : Alexandra Zaïnal
Concept & original design : Baudouin d'Aumeries
Assistance for programming : Marc-Olivier Méhu
Technical & hardware support : Manuel Goepfert

Contact : metmap@orbifly.com




SOURCES & CREDITS :

   NOAA       Earth
Advisory